Time;durP1;ratioP1;P1;durP2;ratioP2;P2;SDS_P1;SDS_P2;PMS_P1;PMS_P2;Temp;Humidity;BMP_temperature;BMP_pressure;BME280_temperature;BME280_humidity;BME280_pressure;Samples;Min_cycle;Max_cycle;Signal;HPM_P1;HPM_P2
2022/05/31 00:00:30;;;;;;;13.80;6.82;;;;;;;8.25;80.95;101260.72;5010815;28;20059;-85
2022/05/31 00:02:57;;;;;;;14.45;6.53;;;;;;;8.20;81.30;101257.97;5010189;28;20022;-85
2022/05/31 00:05:23;;;;;;;12.23;6.43;;;;;;;8.14;81.54;101253.53;5013259;28;20112;-85
2022/05/31 00:07:48;;;;;;;14.30;6.88;;;;;;;8.10;81.80;101253.19;5011564;28;20144;-84
2022/05/31 00:10:15;;;;;;;11.43;7.20;;;;;;;8.06;82.06;101251.19;5009995;28;20109;-84
2022/05/31 00:12:41;;;;;;;14.23;6.60;;;;;;;8.02;81.99;101243.66;5012652;28;20698;-86
2022/05/31 00:15:09;;;;;;;10.47;6.73;;;;;;;7.99;82.22;101243.28;5018320;28;20489;-86
2022/05/31 00:17:35;;;;;;;10.43;6.73;;;;;;;7.90;82.42;101240.16;5031878;28;20288;-86
2022/05/31 00:20:04;;;;;;;10.85;6.88;;;;;;;7.80;82.82;101234.56;5106529;22;20033;-86
2022/05/31 00:22:45;;;;;;;17.33;7.13;;;;;;;7.72;82.25;101222.38;4991832;28;20080;-86
2022/05/31 00:25:14;;;;;;;14.02;7.20;;;;;;;7.72;83.17;101233.84;4994001;28;20029;-86
2022/05/31 00:27:39;;;;;;;10.95;6.50;;;;;;;7.67;83.87;101231.03;5011301;28;20121;-86
2022/05/31 00:30:06;;;;;;;12.53;6.60;;;;;;;7.65;83.67;101241.16;5009278;28;20116;-86
2022/05/31 00:32:35;;;;;;;12.70;6.90;;;;;;;7.61;84.34;101247.16;5011859;28;20025;-85
2022/05/31 00:35:09;;;;;;;11.23;7.00;;;;;;;7.51;84.72;101242.34;5012016;28;20033;-86
2022/05/31 00:37:36;;;;;;;15.73;6.82;;;;;;;7.48;84.98;101237.50;5009879;28;20574;-86
2022/05/31 00:40:03;;;;;;;13.93;6.90;;;;;;;7.43;84.60;101238.16;5011704;28;20030;-86
2022/05/31 00:42:45;;;;;;;15.30;6.72;;;;;;;7.37;85.02;101245.22;5010895;28;20033;-86
2022/05/31 00:45:11;;;;;;;12.25;6.78;;;;;;;7.35;85.48;101241.97;4991465;28;20477;-86
2022/05/31 00:47:36;;;;;;;11.05;7.30;;;;;;;7.25;85.90;101234.50;5010161;28;20034;-85
2022/05/31 00:52:55;;;;;;;9.73;6.25;;;;;;;7.15;85.42;101225.41;5069117;28;20049;-87
2022/05/31 00:55:27;;;;;;;9.82;6.43;;;;;;;7.23;85.99;101238.44;5035818;28;20037;-87
2022/05/31 00:57:56;;;;;;;11.60;7.05;;;;;;;7.25;86.24;101247.03;5071002;28;20043;-86
2022/05/31 01:00:21;;;;;;;9.57;6.63;;;;;;;7.18;86.07;101233.78;5059026;28;20021;-86
2022/05/31 01:02:49;;;;;;;11.53;6.73;;;;;;;7.15;86.79;101236.06;5050754;28;20492;-86
2022/05/31 01:05:16;;;;;;;9.02;6.78;;;;;;;7.11;86.81;101241.88;5049143;28;20033;-86
2022/05/31 01:07:41;;;;;;;10.38;6.45;;;;;;;7.10;87.02;101236.75;5036955;28;20082;-86
2022/05/31 01:10:10;;;;;;;12.17;7.20;;;;;;;7.07;87.26;101237.19;5050663;28;20468;-87
2022/05/31 01:12:37;;;;;;;9.05;6.65;;;;;;;7.05;87.36;101242.75;5050648;28;20481;-87
2022/05/31 01:15:02;;;;;;;11.65;6.72;;;;;;;7.03;87.36;101230.72;5050101;28;20112;-84
2022/05/31 01:17:39;;;;;;;13.53;7.27;;;;;;;7.05;87.42;101236.59;5045765;28;20116;-85
2022/05/31 01:20:06;;;;;;;10.13;6.68;;;;;;;7.06;87.45;101236.41;5046810;28;20535;-87
2022/05/31 01:22:53;;;;;;;10.32;6.82;;;;;;;7.08;87.64;101230.84;5050309;28;20033;-86
2022/05/31 01:25:40;;;;;;;12.43;6.63;;;;;;;7.06;87.17;101231.06;5048800;28;20029;-85
2022/05/31 01:28:35;;;;;;;9.95;6.35;;;;;;;7.05;86.98;101225.94;5050246;28;20036;-85
2022/05/31 01:31:12;;;;;;;11.45;6.80;;;;;;;7.01;87.32;101224.78;5049376;28;20032;-85
2022/05/31 01:33:50;;;;;;;13.90;6.70;;;;;;;6.97;88.29;101225.22;5048671;28;20388;-85
2022/05/31 01:36:25;;;;;;;9.17;6.27;;;;;;;6.94;88.04;101216.84;5038423;28;20287;-85
2022/05/31 01:39:02;;;;;;;11.70;6.93;;;;;;;6.87;88.05;101211.59;5049612;28;20044;-86
2022/05/31 01:41:34;;;;;;;10.80;6.68;;;;;;;6.86;88.62;101219.84;5050757;28;20397;-86
2022/05/31 01:44:07;;;;;;;13.38;7.07;;;;;;;6.80;88.91;101222.34;5046339;28;20021;-85
2022/05/31 01:46:34;;;;;;;8.85;6.45;;;;;;;6.73;89.38;101218.97;5047056;28;20029;-85
2022/05/31 01:49:06;;;;;;;10.57;7.03;;;;;;;6.69;89.70;101215.09;5050756;28;20103;-85
2022/05/31 01:51:33;;;;;;;11.35;6.95;;;;;;;6.61;89.34;101218.06;5051074;28;20029;-85
2022/05/31 01:53:58;;;;;;;9.68;6.55;;;;;;;6.58;89.47;101224.63;5049453;28;20047;-85
2022/05/31 01:56:24;;;;;;;8.77;7.03;;;;;;;6.54;90.21;101215.47;5049852;28;20541;-85
2022/05/31 01:58:53;;;;;;;10.38;6.72;;;;;;;6.51;90.14;101219.38;5049084;28;20039;-85
2022/05/31 02:01:19;;;;;;;13.40;6.88;;;;;;;6.50;90.19;101219.59;5048499;28;20039;-84
2022/05/31 02:03:46;;;;;;;10.73;6.90;;;;;;;6.50;90.32;101215.09;5046091;28;20044;-85
2022/05/31 02:06:33;;;;;;;9.25;6.97;;;;;;;6.48;90.62;101214.50;5047235;28;20105;-85
2022/05/31 02:09:00;;;;;;;9.27;6.50;;;;;;;6.48;90.95;101214.50;5048731;28;20033;-85
2022/05/31 02:11:27;;;;;;;10.40;7.03;;;;;;;6.46;91.09;101200.59;5041897;22;20316;-85
2022/05/31 02:13:52;;;;;;;11.27;7.10;;;;;;;6.49;90.91;101212.63;5027312;28;20581;-86
2022/05/31 02:16:27;;;;;;;8.97;6.97;;;;;;;6.50;90.71;101207.09;5026972;28;20038;-85
2022/05/31 02:21:37;;;;;;;13.10;6.90;;;;;;;6.63;91.20;101211.50;5028164;28;20075;-85
2022/05/31 02:24:09;;;;;;;8.52;6.63;;;;;;;6.73;91.08;101216.28;5026355;28;20045;-85
2022/05/31 02:26:35;;;;;;;9.27;6.40;;;;;;;6.81;90.88;101213.31;5037230;28;20029;-84
2022/05/31 02:29:01;;;;;;;10.88;6.82;;;;;;;6.88;90.62;101215.91;5037676;28;20039;-84
2022/05/31 02:31:27;;;;;;;10.73;6.05;;;;;;;6.93;90.29;101209.91;5022729;28;20026;-84
2022/05/31 02:33:56;;;;;;;11.43;6.60;;;;;;;6.98;90.41;101204.72;5004045;28;20030;-84
2022/05/31 02:36:22;;;;;;;10.80;6.33;;;;;;;7.06;90.55;101198.25;5034014;28;20021;-85
2022/05/31 02:38:47;;;;;;;11.20;6.90;;;;;;;7.04;89.70;101195.84;5033426;28;20302;-85
2022/05/31 02:41:14;;;;;;;7.87;6.27;;;;;;;7.17;90.04;101202.00;5031133;28;20735;-85
2022/05/31 02:43:40;;;;;;;8.25;5.78;;;;;;;7.22;89.25;101202.16;5032317;28;20499;-85
2022/05/31 02:46:08;;;;;;;11.17;6.10;;;;;;;7.28;88.83;101193.28;5031207;28;20150;-86
2022/05/31 02:48:35;;;;;;;9.88;5.68;;;;;;;7.32;88.87;101199.75;5031693;28;20104;-85
2022/05/31 02:51:01;;;;;;;11.02;6.00;;;;;;;7.31;89.04;101190.13;5033438;28;20032;-85
2022/05/31 02:53:26;;;;;;;12.20;5.50;;;;;;;7.36;88.42;101203.59;5032802;28;20029;-85
2022/05/31 02:55:52;;;;;;;9.77;5.97;;;;;;;7.40;87.96;101203.94;5033086;28;20026;-84
2022/05/31 02:58:18;;;;;;;8.63;5.67;;;;;;;7.42;88.15;101204.53;5033602;28;20037;-85
2022/05/31 03:00:43;;;;;;;7.13;5.45;;;;;;;7.43;88.03;101196.31;5031815;28;20040;-84
2022/05/31 03:03:09;;;;;;;6.73;5.33;;;;;;;7.41;87.50;101198.41;5051752;22;20061;-85
2022/05/31 03:05:34;;;;;;;7.30;5.57;;;;;;;7.43;87.88;101196.31;4994760;28;20076;-85
2022/05/31 03:08:02;;;;;;;6.95;5.30;;;;;;;7.46;87.28;101197.72;5014232;28;20029;-84
2022/05/31 03:10:32;;;;;;;8.80;5.40;;;;;;;7.48;87.13;101192.19;5012660;28;20072;-85
2022/05/31 03:12:58;;;;;;;6.60;5.30;;;;;;;7.48;86.92;101192.19;5013200;28;20288;-84
2022/05/31 03:15:25;;;;;;;10.15;5.40;;;;;;;7.48;87.27;101197.50;5011174;28;20028;-85
2022/05/31 03:18:14;;;;;;;9.90;4.90;;;;;;;7.49;87.14;101188.44;5011425;28;20072;-85
2022/05/31 03:20:44;;;;;;;7.93;5.07;;;;;;;7.51;87.37;101194.38;5011332;28;20033;-84
2022/05/31 03:23:13;;;;;;;6.43;4.80;;;;;;;7.52;87.10;101188.81;5012386;28;20297;-84
2022/05/31 03:25:40;;;;;;;7.80;5.43;;;;;;;7.57;87.32;101188.13;5020715;28;20215;-85
2022/05/31 03:28:06;;;;;;;8.95;5.50;;;;;;;7.55;87.24;101187.53;5028534;28;20134;-84
2022/05/31 03:30:35;;;;;;;7.43;5.30;;;;;;;7.60;87.11;101193.00;5029244;28;20061;-85
2022/05/31 03:33:02;;;;;;;9.25;5.22;;;;;;;7.62;87.20;101190.94;5027617;28;20022;-84
2022/05/31 03:35:27;;;;;;;7.57;5.20;;;;;;;7.68;86.79;101189.19;5032850;28;20085;-85
2022/05/31 03:37:52;;;;;;;11.20;5.30;;;;;;;7.72;86.80;101190.38;5032470;28;20037;-84
2022/05/31 03:43:09;;;;;;;9.73;5.15;;;;;;;7.79;86.88;101184.91;4983756;28;20168;-89
2022/05/31 03:45:38;;;;;;;8.60;5.17;;;;;;;7.83;86.27;101181.56;5018935;28;20664;-89
2022/05/31 03:48:06;;;;;;;9.90;5.60;;;;;;;7.87;86.76;101181.91;5018310;28;20022;-88
2022/05/31 03:50:31;;;;;;;10.55;5.57;;;;;;;7.82;86.51;101174.59;5000217;28;20036;-92
2022/05/31 03:52:57;;;;;;;13.95;5.90;;;;;;;7.87;86.41;101187.22;5014421;28;20026;-91
2022/05/31 03:55:24;;;;;;;7.80;5.60;;;;;;;7.93;86.19;101189.00;5022894;28;20022;-93
2022/05/31 03:57:52;;;;;;;7.47;5.38;;;;;;;7.95;86.28;101184.25;5001758;28;20042;-93
2022/05/31 04:00:18;;;;;;;9.88;5.80;;;;;;;7.96;86.21;101179.69;5015994;28;20037;-94
2022/05/31 04:02:43;;;;;;;11.75;5.80;;;;;;;7.96;86.28;101188.53;5019776;28;20034;-93
2022/05/31 04:05:09;;;;;;;8.90;5.68;;;;;;;7.95;86.18;101186.06;5012080;28;20026;-93
2022/05/31 04:07:35;;;;;;;11.23;5.90;;;;;;;7.93;86.48;101183.66;5001436;28;20412;-94
2022/05/31 04:10:03;;;;;;;11.82;5.95;;;;;;;8.00;86.45;101192.38;5019514;28;20120;-95
2022/05/31 04:12:30;;;;;;;9.03;6.20;;;;;;;8.00;86.50;101187.03;5013802;28;20495;-94
2022/05/31 04:14:56;;;;;;;7.63;5.83;;;;;;;8.03;86.46;101181.22;5015511;28;20660;-93
2022/05/31 04:17:21;;;;;;;8.98;6.20;;;;;;;8.09;86.73;101178.66;5018430;28;20037;-93
2022/05/31 04:19:46;;;;;;;10.77;6.03;;;;;;;8.13;86.68;101179.84;5016415;28;20510;-94
2022/05/31 04:22:11;;;;;;;9.27;5.97;;;;;;;8.22;86.24;101178.41;5014628;28;20030;-93
2022/05/31 04:24:37;;;;;;;14.27;5.77;;;;;;;8.29;86.14;101183.66;5015571;28;20034;-93
2022/05/31 04:27:02;;;;;;;10.70;5.90;;;;;;;8.38;85.63;101184.91;5012451;28;20084;-92
2022/05/31 04:29:27;;;;;;;10.67;5.97;;;;;;;8.43;85.12;101178.88;5019116;28;20397;-91
2022/05/31 04:31:53;;;;;;;10.13;5.80;;;;;;;8.44;84.92;101178.66;5002793;28;20034;-91
2022/05/31 04:34:18;;;;;;;14.90;6.50;;;;;;;8.48;84.87;101181.69;5008354;28;20428;-91
2022/05/31 04:36:43;;;;;;;9.53;5.83;;;;;;;8.48;84.71;101176.34;5013226;28;20097;-90
2022/05/31 04:39:09;;;;;;;11.40;6.10;;;;;;;8.52;85.00;101174.00;5013826;28;20033;-91
2022/05/31 04:41:34;;;;;;;10.55;6.45;;;;;;;8.55;85.30;101190.41;5012120;28;20034;-92
2022/05/31 04:44:01;;;;;;;10.40;5.80;;;;;;;8.60;85.06;101179.00;5013795;28;20083;-92
2022/05/31 04:46:29;;;;;;;11.65;6.53;;;;;;;8.66;84.82;101182.59;5014458;28;20100;-91
2022/05/31 04:49:05;;;;;;;14.70;6.50;;;;;;;8.71;84.97;101182.69;5011205;28;20030;-92
2022/05/31 04:51:32;;;;;;;10.90;6.70;;;;;;;8.76;84.85;101180.94;5038066;22;20064;-92
2022/05/31 04:53:57;;;;;;;10.40;6.37;;;;;;;8.77;84.79;101163.03;5032013;28;20300;-92
2022/05/31 04:56:23;;;;;;;16.17;6.90;;;;;;;8.86;85.37;101174.16;5038526;28;20456;-91
2022/05/31 04:58:51;;;;;;;13.70;6.47;;;;;;;8.93;84.30;101173.00;5031411;28;20116;-90
2022/05/31 05:01:17;;;;;;;10.05;6.40;;;;;;;9.02;84.14;101173.41;5012799;28;20025;-91
2022/05/31 05:03:44;;;;;;;9.00;6.20;;;;;;;9.08;83.56;101168.97;5012204;28;20559;-90
2022/05/31 05:06:12;;;;;;;10.60;6.03;;;;;;;9.19;83.29;101173.44;5012191;28;20387;-90
2022/05/31 05:08:38;;;;;;;13.20;6.55;;;;;;;9.29;83.14;101169.34;5011172;28;20037;-91
2022/05/31 05:11:06;;;;;;;7.55;6.40;;;;;;;9.38;82.83;101173.25;5008179;28;20034;-89
2022/05/31 05:13:36;;;;;;;12.70;6.30;;;;;;;9.47;81.97;101170.97;5015981;28;20481;-91
2022/05/31 05:16:05;;;;;;;11.80;6.63;;;;;;;9.53;82.35;101175.38;5012305;28;20030;-91
2022/05/31 05:18:31;;;;;;;12.38;7.22;;;;;;;9.55;81.93;101163.38;5010341;28;20025;-91
2022/05/31 05:20:58;;;;;;;10.27;6.30;;;;;;;9.58;81.02;101166.59;5034139;22;20045;-90
2022/05/31 05:23:24;;;;;;;11.18;6.95;;;;;;;9.63;81.55;101172.06;5031574;28;20029;-89
2022/05/31 05:25:59;;;;;;;10.77;7.20;;;;;;;9.67;81.60;101165.16;5028602;28;20033;-90
2022/05/31 05:31:24;;;;;;;15.30;7.53;;;;;;;9.78;81.19;101174.97;5008782;28;20045;-91
2022/05/31 05:33:50;;;;;;;15.32;7.45;;;;;;;9.83;81.28;101174.22;5013381;28;20022;-90
2022/05/31 05:36:16;;;;;;;10.52;7.20;;;;;;;9.93;80.84;101165.53;5021747;28;20073;-93
2022/05/31 05:38:42;;;;;;;12.15;6.95;;;;;;;9.99;80.03;101170.72;5014627;28;20116;-91
2022/05/31 05:41:08;;;;;;;8.87;6.50;;;;;;;10.02;80.71;101168.63;5011975;28;20091;-91
2022/05/31 05:43:33;;;;;;;13.25;6.72;;;;;;;10.12;80.18;101174.94;5015024;28;20034;-91
2022/05/31 05:46:01;;;;;;;13.77;7.00;;;;;;;10.21;80.09;101169.16;5018043;28;20076;-89
2022/05/31 05:48:26;;;;;;;13.15;7.30;;;;;;;10.33;79.50;101171.72;5027800;28;20026;-94
2022/05/31 05:50:52;;;;;;;16.00;6.90;;;;;;;10.49;80.01;101172.78;5027762;28;20118;-93
2022/05/31 05:53:17;;;;;;;11.33;7.03;;;;;;;10.62;78.47;101168.91;5031347;28;20026;-93
2022/05/31 05:55:42;;;;;;;11.77;7.43;;;;;;;10.69;78.13;101174.88;5027099;28;20034;-93
2022/05/31 05:58:08;;;;;;;14.40;7.87;;;;;;;10.64;78.89;101167.59;5023245;28;20072;-94
2022/05/31 06:00:42;;;;;;;16.95;7.88;;;;;;;10.67;78.40;101169.78;5018213;28;20033;-92
2022/05/31 06:03:10;;;;;;;11.20;7.13;;;;;;;10.75;78.80;101174.72;5023449;28;20068;-93
2022/05/31 06:05:42;;;;;;;14.30;7.95;;;;;;;10.83;78.54;101178.00;5007545;28;20041;-93
2022/05/31 06:08:12;;;;;;;13.43;7.60;;;;;;;10.87;78.24;101171.06;5023400;28;20619;-93
2022/05/31 06:11:09;;;;;;;12.37;7.93;;;;;;;10.94;77.58;101171.69;5018255;28;20034;-93
2022/05/31 06:13:49;;;;;;;9.10;7.73;;;;;;;11.04;77.63;101177.16;5024522;28;20309;-93
2022/05/31 06:16:17;;;;;;;12.85;7.40;;;;;;;11.09;77.68;101175.59;5019485;28;20029;-92
2022/05/31 06:18:58;;;;;;;12.75;7.22;;;;;;;11.16;77.91;101178.88;5015571;28;21482;-93
2022/05/31 06:21:25;;;;;;;13.52;8.23;;;;;;;11.26;77.60;101179.00;5005290;28;20069;-93
2022/05/31 06:23:51;;;;;;;15.07;8.32;;;;;;;11.36;77.55;101175.59;5008956;28;20121;-92
2022/05/31 06:26:17;;;;;;;16.50;7.93;;;;;;;11.43;76.68;101172.69;5011613;28;20112;-92
2022/05/31 06:28:44;;;;;;;15.60;8.95;;;;;;;11.46;76.56;101170.31;5010302;28;20038;-92
2022/05/31 06:31:09;;;;;;;19.45;8.75;;;;;;;11.65;76.69;101165.38;5016758;28;20028;-94
2022/05/31 06:33:34;;;;;;;13.00;8.67;;;;;;;11.97;76.20;101175.28;5032526;28;20033;-95
2022/05/31 06:36:02;;;;;;;13.63;9.18;;;;;;;12.31;75.19;101182.22;5019945;28;20046;-94
2022/05/31 06:38:28;;;;;;;15.43;9.17;;;;;;;12.63;73.73;101183.97;5013039;28;20489;-92
2022/05/31 06:40:55;;;;;;;18.25;9.95;;;;;;;12.86;73.59;101174.63;5014472;28;20454;-93
2022/05/31 06:43:20;;;;;;;15.88;8.68;;;;;;;13.09;71.26;101186.00;5012355;28;20145;-87
2022/05/31 06:45:46;;;;;;;12.90;8.50;;;;;;;13.22;70.43;101176.63;5008962;28;20062;-87
2022/05/31 06:48:11;;;;;;;13.00;7.87;;;;;;;13.25;69.59;101184.13;5008611;28;20520;-87
2022/05/31 06:50:36;;;;;;;14.47;7.47;;;;;;;13.26;69.33;101171.50;5003930;28;20792;-87
2022/05/31 06:58:30;;;;;;;10.30;6.57;;;;;;;13.33;66.58;101190.88;5006154;28;20496;-88
2022/05/31 07:00:57;;;;;;;10.77;6.20;;;;;;;13.21;66.78;101176.88;5007172;28;20293;-87
2022/05/31 07:03:22;;;;;;;9.73;6.30;;;;;;;13.05;67.77;101179.53;5009971;28;20034;-87
2022/05/31 07:05:48;;;;;;;9.90;6.30;;;;;;;13.02;66.67;101177.38;5008122;28;20483;-87
2022/05/31 07:08:13;;;;;;;9.83;6.57;;;;;;;12.98;67.06;101174.41;5027530;28;20042;-87
2022/05/31 07:10:39;;;;;;;10.93;7.03;;;;;;;13.09;68.22;101182.50;5004677;28;20030;-87
2022/05/31 07:13:04;;;;;;;7.85;5.82;;;;;;;13.33;67.44;101183.63;5007385;28;20038;-87
2022/05/31 07:15:31;;;;;;;7.30;6.23;;;;;;;13.54;67.25;101174.75;5007573;28;20041;-87
2022/05/31 07:17:57;;;;;;;12.25;6.50;;;;;;;13.93;66.77;101180.41;5008605;28;20520;-87
2022/05/31 07:20:22;;;;;;;10.18;6.65;;;;;;;14.18;65.77;101177.94;5012292;28;20034;-87
2022/05/31 07:22:47;;;;;;;9.80;6.40;;;;;;;14.38;64.72;101174.34;5010869;28;20123;-87
2022/05/31 07:25:13;;;;;;;10.13;6.07;;;;;;;14.58;63.84;101170.78;4995807;28;20121;-87
2022/05/31 07:27:38;;;;;;;14.27;5.40;;;;;;;14.77;63.06;101172.91;5010400;28;20037;-88
2022/05/31 07:30:05;;;;;;;7.83;4.53;;;;;;;14.90;60.67;101177.69;5012899;28;20037;-89
2022/05/31 07:32:30;;;;;;;7.38;5.05;;;;;;;14.96;61.36;101171.19;5011892;28;20129;-87
2022/05/31 07:35:03;;;;;;;7.73;4.63;;;;;;;15.23;60.40;101177.22;5021527;28;20219;-86
2022/05/31 07:37:29;;;;;;;6.50;4.22;;;;;;;15.39;59.33;101183.28;5010159;28;20041;-86
2022/05/31 07:39:54;;;;;;;7.90;4.47;;;;;;;15.47;58.86;101181.88;5012180;28;20026;-87
2022/05/31 07:42:19;;;;;;;7.53;5.13;;;;;;;15.49;57.84;101177.81;5009890;28;20026;-87
2022/05/31 07:44:45;;;;;;;9.20;4.82;;;;;;;15.60;58.14;101178.56;5011763;28;20045;-88
2022/05/31 07:47:10;;;;;;;10.13;5.70;;;;;;;15.68;58.88;101182.53;5011869;28;20532;-87
2022/05/31 07:49:35;;;;;;;9.07;5.20;;;;;;;15.72;57.57;101170.88;5010399;28;20026;-86
2022/05/31 07:52:00;;;;;;;6.50;5.10;;;;;;;15.81;58.02;101176.47;5010559;28;20041;-85
2022/05/31 07:54:30;;;;;;;6.40;4.97;;;;;;;16.04;58.96;101166.00;5009136;28;20516;-85
2022/05/31 07:56:56;;;;;;;10.57;4.93;;;;;;;16.20;56.15;101169.34;5011419;28;20069;-86
2022/05/31 07:59:21;;;;;;;11.40;4.47;;;;;;;16.29;55.37;101172.22;5011410;28;20060;-86
2022/05/31 08:01:46;;;;;;;7.77;4.77;;;;;;;16.31;54.05;101165.44;5010039;28;20025;-87
2022/05/31 08:04:14;;;;;;;6.97;4.93;;;;;;;16.33;54.64;101170.56;5012312;28;20501;-87
2022/05/31 08:06:39;;;;;;;9.88;5.35;;;;;;;16.26;55.19;101164.66;5054315;22;20201;-88
2022/05/31 08:09:05;;;;;;;8.07;5.82;;;;;;;16.00;56.25;101162.25;5021673;28;20139;-87
2022/05/31 08:11:32;;;;;;;10.13;5.57;;;;;;;16.06;56.73;101166.53;5012740;28;20065;-87
2022/05/31 08:13:58;;;;;;;9.70;5.70;;;;;;;16.17;57.60;101165.31;5012493;28;20079;-88
2022/05/31 08:16:26;;;;;;;11.30;6.50;;;;;;;16.40;57.39;101164.78;5017114;28;20144;-91
2022/05/31 08:18:55;;;;;;;8.97;5.50;;;;;;;16.59;55.54;101159.44;5029084;28;20068;-89
2022/05/31 08:21:30;;;;;;;9.40;5.70;;;;;;;16.78;55.24;101156.72;5032799;28;20770;-89
2022/05/31 08:23:57;;;;;;;9.60;5.45;;;;;;;16.91;54.33;101156.00;5027810;28;20093;-90
2022/05/31 08:26:23;;;;;;;9.68;6.10;;;;;;;16.81;55.37;101145.34;5014865;28;20052;-90
2022/05/31 08:31:28;;;;;;;11.38;6.07;;;;;;;16.95;55.48;101150.84;5031301;28;20049;-90
2022/05/31 08:33:55;;;;;;;9.40;5.90;;;;;;;17.18;55.77;101138.31;5030613;28;20386;-90
2022/05/31 08:36:21;;;;;;;9.27;5.28;;;;;;;17.37;53.82;101130.16;5032281;28;20021;-90
2022/05/31 08:38:46;;;;;;;10.23;5.90;;;;;;;17.44;52.42;101135.19;5031898;28;20032;-89
2022/05/31 08:41:32;;;;;;;7.40;5.40;;;;;;;17.63;53.85;101137.03;5031444;28;20068;-90
2022/05/31 08:44:05;;;;;;;6.47;5.43;;;;;;;17.85;52.37;101142.59;5028836;28;20659;-91
2022/05/31 08:46:49;;;;;;;12.90;5.63;;;;;;;18.03;52.46;101139.34;5031367;28;20025;-91
2022/05/31 08:51:52;;;;;;;10.93;5.78;;;;;;;18.16;51.23;101144.75;5014175;28;20497;-91
2022/05/31 08:52:26;;;;;;;8.55;5.30;;;;;;;18.35;49.80;101148.47;5033318;28;20456;-89
2022/05/31 08:57:59;;;;;;;9.38;5.68;;;;;;;18.39;50.30;101149.47;5031898;28;20055;-90
2022/05/31 09:00:33;;;;;;;7.57;5.82;;;;;;;18.44;49.27;101152.88;5030789;28;20436;-90
2022/05/31 09:03:10;;;;;;;7.63;5.68;;;;;;;18.64;49.92;101148.13;5007964;28;20060;-87
2022/05/31 09:05:43;;;;;;;8.33;5.40;;;;;;;18.79;50.07;101155.13;5030930;28;20484;-87
2022/05/31 09:14:22;;;;;;;6.38;5.20;;;;;;;18.62;49.12;101148.41;5012160;28;20049;-88
2022/05/31 09:17:22;;;;;;;7.07;4.80;;;;;;;18.80;49.96;101145.88;4993910;28;20022;-88
2022/05/31 09:30:10;;;;;;;7.15;4.80;;;;;;;18.46;47.78;101130.84;5155900;22;20115;-88
2022/05/31 09:46:16;;;;;;;8.70;5.20;;;;;;;19.05;45.70;101147.22;5736618;22;20155;-89
2022/05/31 09:51:24;;;;;;;6.85;5.40;;;;;;;19.15;46.23;101145.38;4988999;28;21919;-88
2022/05/31 09:59:27;;;;;;;5.60;4.87;;;;;;;19.93;45.80;101131.47;5042024;23;20060;-89
2022/05/31 10:01:53;;;;;;;6.97;5.57;;;;;;;20.00;43.49;101141.06;5028922;28;20799;-88
2022/05/31 10:04:30;;;;;;;8.68;4.60;;;;;;;20.20;45.00;101134.25;5029492;28;20084;-92
2022/05/31 10:06:55;;;;;;;8.38;4.93;;;;;;;20.11;43.56;101132.31;5029328;28;20045;-92
2022/05/31 10:09:28;;;;;;;5.97;4.80;;;;;;;19.95;43.26;101133.84;5024374;28;20029;-92
2022/05/31 10:12:04;;;;;;;9.05;5.15;;;;;;;19.70;44.75;101136.13;5015339;28;20398;-92
2022/05/31 10:14:36;;;;;;;8.02;5.43;;;;;;;19.72;44.79;101131.16;5011765;28;20537;-89
2022/05/31 10:17:56;;;;;;;7.07;4.97;;;;;;;20.03;44.80;101135.81;4992123;28;20049;-89
2022/05/31 10:20:24;;;;;;;5.77;4.80;;;;;;;19.60;44.54;101123.63;4949682;29;21324;-89
2022/05/31 10:22:59;;;;;;;8.43;5.45;;;;;;;19.20;43.99;101124.31;4998810;28;20080;-89
2022/05/31 10:25:30;;;;;;;7.53;4.93;;;;;;;18.91;45.47;101128.25;5021381;22;20058;-88
2022/05/31 10:28:38;;;;;;;8.82;4.78;;;;;;;18.97;46.58;101126.22;5016908;28;20469;-87
2022/05/31 10:31:19;;;;;;;8.40;5.38;;;;;;;18.93;46.07;101133.34;4997241;28;20081;-87
2022/05/31 10:33:58;;;;;;;7.65;4.88;;;;;;;19.13;46.20;101136.72;5027266;28;20108;-85
2022/05/31 10:36:30;;;;;;;9.13;4.90;;;;;;;19.56;45.15;101127.25;5030342;28;20041;-86
2022/05/31 10:39:07;;;;;;;6.80;4.43;;;;;;;19.75;45.02;101140.63;5028855;28;20068;-88
2022/05/31 10:41:35;;;;;;;5.57;4.32;;;;;;;19.86;43.76;101124.84;5028919;28;20619;-88
2022/05/31 10:44:42;;;;;;;8.10;4.33;;;;;;;20.16;44.23;101125.13;5027271;28;20025;-88
2022/05/31 10:47:19;;;;;;;6.13;4.20;;;;;;;20.12;44.47;101123.03;4965654;28;20306;-87
2022/05/31 10:49:46;;;;;;;7.18;4.85;;;;;;;20.16;42.36;101125.13;5049354;22;20075;-89
2022/05/31 10:52:41;;;;;;;7.70;5.07;;;;;;;20.22;44.16;101119.22;5045808;28;20030;-88
2022/05/31 10:55:34;;;;;;;8.30;4.90;;;;;;;20.40;44.14;101121.97;5032035;28;20448;-89
2022/05/31 10:58:05;;;;;;;9.63;4.25;;;;;;;20.66;43.23;101118.50;5029781;28;20038;-88
2022/05/31 11:00:39;;;;;;;7.30;4.78;;;;;;;20.94;42.46;101123.63;5000456;28;20562;-89
2022/05/31 11:03:07;;;;;;;7.70;4.78;;;;;;;20.74;40.53;101114.97;5005550;28;20477;-88
2022/05/31 11:06:06;;;;;;;7.90;5.22;;;;;;;20.46;42.15;101119.91;4994897;28;20481;-88
2022/05/31 11:12:00;;;;;;;6.70;5.00;;;;;;;20.24;42.46;101129.81;5013300;28;20100;-88
2022/05/31 11:14:38;;;;;;;9.10;5.30;;;;;;;20.07;41.97;101135.97;5014166;28;20360;-87
2022/05/31 11:17:32;;;;;;;7.95;5.32;;;;;;;19.82;42.29;101136.34;4995807;28;20034;-88
2022/05/31 11:20:15;;;;;;;8.18;5.50;;;;;;;19.35;43.79;101123.16;5013351;28;20083;-87
2022/05/31 11:23:10;;;;;;;10.02;6.13;;;;;;;19.06;45.24;101143.41;5012945;28;20034;-88
2022/05/31 11:25:38;;;;;;;7.20;5.53;;;;;;;18.79;47.03;101133.41;5010034;28;20389;-88
2022/05/31 11:28:26;;;;;;;8.10;5.70;;;;;;;18.00;50.66;101141.53;5012949;28;20041;-87
2022/05/31 11:31:13;;;;;;;7.32;4.18;;;;;;;17.86;49.63;101138.78;5012706;28;20034;-87
2022/05/31 11:34:06;;;;;;;9.13;5.40;;;;;;;17.91;52.33;101137.88;5012467;28;20044;-88
2022/05/31 11:39:35;;;;;;;6.80;4.23;;;;;;;17.81;49.80;101140.78;5096431;22;20084;-88
2022/05/31 11:42:03;;;;;;;5.63;3.60;;;;;;;17.86;47.77;101136.06;5029177;28;20996;-87
2022/05/31 11:45:05;;;;;;;4.88;3.45;;;;;;;17.81;45.61;101138.06;5033593;28;20041;-86
2022/05/31 11:48:00;;;;;;;6.90;4.40;;;;;;;17.83;48.09;101142.09;5028817;28;20039;-87
2022/05/31 11:50:55;;;;;;;5.63;4.60;;;;;;;17.72;49.56;101143.38;5026973;28;20469;-87
2022/05/31 11:53:36;;;;;;;8.05;4.07;;;;;;;17.82;49.56;101142.41;5027968;28;20037;-87
2022/05/31 11:56:14;;;;;;;4.28;3.67;;;;;;;18.28;48.33;101146.94;5032135;28;20060;-87
2022/05/31 11:58:39;;;;;;;3.58;2.92;;;;;;;18.94;45.77;101134.16;5030723;28;20049;-87
2022/05/31 12:01:31;;;;;;;3.57;2.67;;;;;;;19.82;44.65;101144.50;5025652;28;20091;-89
2022/05/31 12:04:14;;;;;;;3.90;2.55;;;;;;;20.66;42.40;101135.63;5031523;28;20033;-86
2022/05/31 12:06:43;;;;;;;4.00;2.33;;;;;;;21.38;39.24;101120.84;5014993;28;20086;-91
2022/05/31 12:09:17;;;;;;;2.25;2.05;;;;;;;21.86;39.16;101136.13;5033673;28;20068;-91
2022/05/31 12:11:59;;;;;;;2.23;1.97;;;;;;;22.05;38.96;101137.66;5025841;28;20053;-90
2022/05/31 12:14:41;;;;;;;4.80;2.27;;;;;;;21.92;38.13;101129.34;5029521;28;20296;-89
2022/05/31 12:17:08;;;;;;;2.22;2.00;;;;;;;21.90;36.81;101128.91;5023614;28;20496;-90
2022/05/31 12:19:42;;;;;;;3.00;2.10;;;;;;;21.75;38.11;101129.44;5013181;28;20520;-90
2022/05/31 12:22:21;;;;;;;3.92;2.30;;;;;;;21.43;37.34;101123.41;5032713;28;20021;-90
2022/05/31 12:25:18;;;;;;;2.95;2.05;;;;;;;21.18;38.06;101118.50;5028772;28;20197;-90
2022/05/31 12:27:49;;;;;;;3.28;2.10;;;;;;;20.69;38.25;101126.81;5010186;28;20137;-89
2022/05/31 12:30:24;;;;;;;3.58;2.50;;;;;;;20.58;39.32;101126.31;5015053;28;20026;-90
2022/05/31 12:32:53;;;;;;;3.08;2.42;;;;;;;20.75;40.40;101122.00;5029407;28;20378;-89
2022/05/31 12:35:30;;;;;;;3.70;2.72;;;;;;;20.81;42.85;101114.53;5047958;28;20026;-91
2022/05/31 12:38:01;;;;;;;2.97;2.23;;;;;;;21.11;40.69;101106.50;5086489;22;20045;-90
2022/05/31 12:40:38;;;;;;;3.00;2.47;;;;;;;21.30;41.03;101104.22;5046130;28;20313;-90
2022/05/31 12:43:08;;;;;;;2.80;2.47;;;;;;;21.15;41.10;101112.91;5041530;28;20075;-90
2022/05/31 12:45:34;;;;;;;3.35;3.03;;;;;;;20.66;40.78;101102.94;5041042;28;20029;-89
2022/05/31 12:48:11;;;;;;;3.27;2.63;;;;;;;20.52;40.23;101113.19;5029657;28;20066;-90